createdAt,value
2023-11-14T00:03:11.103Z,5.97
2023-11-14T00:08:16.397Z,1.60
2023-11-14T00:13:21.174Z,5.35
2023-11-14T00:18:25.932Z,1.77
2023-11-14T00:23:30.635Z,2.88
2023-11-14T00:28:35.401Z,5.60
2023-11-14T00:33:39.955Z,4.15
2023-11-14T00:38:44.656Z,4.22
2023-11-14T00:43:49.456Z,3.00
2023-11-14T00:48:54.360Z,3.70
2023-11-14T00:53:59.112Z,3.60
2023-11-14T00:59:06.149Z,3.95
2023-11-14T01:04:12.683Z,3.42
2023-11-14T01:09:17.582Z,3.33
2023-11-14T01:14:23.068Z,3.95
2023-11-14T01:19:28.341Z,3.70
2023-11-14T01:24:33.254Z,3.35
2023-11-14T01:29:38.302Z,2.83
2023-11-14T01:34:43.531Z,2.03
2023-11-14T01:39:48.315Z,2.47
2023-11-14T01:44:53.113Z,3.60
2023-11-14T01:49:58.084Z,3.38
2023-11-14T01:55:02.989Z,4.05
2023-11-14T02:00:08.944Z,4.40
2023-11-14T02:05:22.224Z,3.97
2023-11-14T02:10:27.072Z,3.88
2023-11-14T02:15:32.010Z,2.72
2023-11-14T02:20:36.896Z,2.65
2023-11-14T02:25:41.933Z,2.25
2023-11-14T02:30:47.346Z,5.50
2023-11-14T02:35:52.381Z,5.63
2023-11-14T02:40:57.251Z,4.10
2023-11-14T02:46:02.579Z,4.70
2023-11-14T02:51:07.614Z,2.70
2023-11-14T02:56:13.398Z,4.68
2023-11-14T03:01:18.163Z,5.93
2023-11-14T03:06:22.862Z,3.50
2023-11-14T03:11:27.946Z,3.65
2023-11-14T03:16:32.941Z,4.47
2023-11-14T03:21:44.727Z,7.97
2023-11-14T03:26:49.731Z,4.00
2023-11-14T03:31:54.587Z,5.68
2023-11-14T03:37:01.101Z,5.25
2023-11-14T03:42:05.851Z,6.18
2023-11-14T03:47:11.041Z,5.53
2023-11-14T03:52:16.062Z,5.40
2023-11-14T03:57:21.931Z,6.50
2023-11-14T04:02:28.835Z,4.57
2023-11-14T04:07:34.539Z,4.63
2023-11-14T04:12:39.948Z,5.00
2023-11-14T04:17:45.177Z,7.10
2023-11-14T04:22:50.075Z,7.03
2023-11-14T04:27:55.019Z,7.10
2023-11-14T04:32:59.870Z,5.15
2023-11-14T04:38:04.600Z,8.05
2023-11-14T04:43:09.260Z,7.13
2023-11-14T04:48:17.056Z,9.82
2023-11-14T04:53:21.819Z,5.60
2023-11-14T04:58:26.591Z,6.82
2023-11-14T05:03:32.610Z,7.68
2023-11-14T05:08:37.441Z,9.03
2023-11-14T05:13:42.981Z,5.28
2023-11-14T05:18:47.893Z,10.43
2023-11-14T05:23:52.636Z,6.85
2023-11-14T05:28:57.280Z,8.13
2023-11-14T05:34:02.608Z,8.13
2023-11-14T05:39:07.540Z,8.77
2023-11-14T05:44:13.244Z,8.18
2023-11-14T05:49:19.191Z,6.03
2023-11-14T05:54:24.145Z,7.85
2023-11-14T05:59:30.134Z,7.78
2023-11-14T06:04:34.909Z,7.50
2023-11-14T06:09:39.885Z,7.45
2023-11-14T06:14:44.566Z,7.05
2023-11-14T06:19:49.343Z,8.95
2023-11-14T06:24:54.033Z,6.72
2023-11-14T06:29:59.113Z,4.78
2023-11-14T06:35:04.708Z,8.20
2023-11-14T06:40:10.788Z,7.30
2023-11-14T06:45:15.515Z,5.57
2023-11-14T06:50:29.949Z,6.18
2023-11-14T06:55:43.492Z,8.40
2023-11-14T07:00:48.126Z,4.73
2023-11-14T07:05:52.765Z,7.57
2023-11-14T07:10:58.223Z,6.60
2023-11-14T07:16:03.347Z,7.30
2023-11-14T07:21:08.422Z,6.95
2023-11-14T07:26:14.932Z,6.40
2023-11-14T07:31:20.702Z,7.03
2023-11-14T07:36:27.264Z,11.27
2023-11-14T07:41:32.151Z,9.75
2023-11-14T07:46:40.721Z,11.43
2023-11-14T07:51:48.180Z,6.80
2023-11-14T07:56:52.988Z,10.40
2023-11-14T08:01:57.876Z,6.07
2023-11-14T08:07:02.839Z,7.35
2023-11-14T08:12:08.423Z,7.05
2023-11-14T08:17:13.462Z,8.47
2023-11-14T08:22:18.643Z,7.18
2023-11-14T08:27:23.537Z,8.88
2023-11-14T08:32:28.478Z,7.22
2023-11-14T08:37:34.155Z,6.60
2023-11-14T08:42:39.637Z,6.00
2023-11-14T08:47:44.448Z,8.03
2023-11-14T08:52:49.350Z,6.10
2023-11-14T08:57:54.366Z,3.53
2023-11-14T09:03:00.670Z,5.95
2023-11-14T09:08:05.986Z,6.32
2023-11-14T09:13:14.298Z,5.90
2023-11-14T09:18:19.321Z,5.95
2023-11-14T09:23:24.688Z,5.45
2023-11-14T09:28:29.689Z,6.83
2023-11-14T09:33:37.756Z,4.85
2023-11-14T09:38:42.488Z,6.72
2023-11-14T09:43:48.520Z,5.78
2023-11-14T09:48:53.049Z,7.97
2023-11-14T09:53:58.422Z,6.90
2023-11-14T09:59:04.276Z,5.82
2023-11-14T10:04:11.391Z,5.68
2023-11-14T10:09:17.805Z,8.02
2023-11-14T10:14:22.605Z,8.13
2023-11-14T10:19:27.085Z,6.20
2023-11-14T10:24:31.932Z,8.00
2023-11-14T10:29:36.733Z,8.05
2023-11-14T10:34:41.366Z,6.90
2023-11-14T10:39:56.055Z,8.55
2023-11-14T10:45:09.430Z,8.43
2023-11-14T10:50:33.003Z,8.10
2023-11-14T10:55:39.083Z,7.20
2023-11-14T11:00:43.880Z,6.70
2023-11-14T11:05:49.929Z,9.20
2023-11-14T11:10:54.865Z,8.82
2023-11-14T11:15:59.555Z,9.60
2023-11-14T11:21:15.208Z,9.80
2023-11-14T11:26:21.514Z,9.97
2023-11-14T11:36:33.083Z,9.43
2023-11-14T11:41:56.666Z,10.30
2023-11-14T11:47:01.773Z,9.55
2023-11-14T11:52:15.275Z,8.77
2023-11-14T11:57:24.304Z,11.05
2023-11-14T12:02:31.957Z,9.60
2023-11-14T12:07:37.474Z,9.00
2023-11-14T12:12:42.772Z,7.93
2023-11-14T12:17:58.417Z,12.82
2023-11-14T12:23:03.914Z,11.83
2023-11-14T12:28:09.629Z,11.07
2023-11-14T12:33:18.729Z,12.18
2023-11-14T12:38:33.819Z,10.32
2023-11-14T12:43:38.912Z,10.63
2023-11-14T12:49:09.490Z,10.73
2023-11-14T12:54:22.865Z,9.63
2023-11-14T12:59:27.704Z,11.23
2023-11-14T13:04:32.765Z,10.52
2023-11-14T13:09:38.024Z,9.73
2023-11-14T13:14:45.325Z,10.40
2023-11-14T13:19:50.787Z,10.82
2023-11-14T13:24:55.499Z,10.30
2023-11-14T13:30:00.307Z,10.93
2023-11-14T13:35:07.529Z,12.60
2023-11-14T13:40:15.330Z,11.18
2023-11-14T13:45:20.849Z,11.95
2023-11-14T13:50:26.971Z,12.20
2023-11-14T14:00:36.946Z,9.73
2023-11-14T14:05:42.065Z,10.13
2023-11-14T14:10:46.690Z,11.05
2023-11-14T14:15:51.524Z,11.95
2023-11-14T14:21:03.332Z,11.88
2023-11-14T14:26:08.422Z,9.30
2023-11-14T14:31:20.758Z,10.77
2023-11-14T14:36:25.824Z,9.57
2023-11-14T14:41:30.884Z,10.27
2023-11-14T14:46:36.638Z,11.18
2023-11-14T14:51:44.253Z,10.43
2023-11-14T14:56:49.874Z,11.10
2023-11-14T15:01:58.819Z,9.90
2023-11-14T15:07:04.059Z,11.48
2023-11-14T15:12:09.096Z,14.95
2023-11-14T15:17:13.889Z,13.23
2023-11-14T15:22:18.789Z,13.35
2023-11-14T15:27:23.650Z,15.00
2023-11-14T15:32:28.758Z,15.82
2023-11-14T15:37:36.939Z,13.13
2023-11-14T15:42:42.329Z,15.70
2023-11-14T15:47:50.255Z,9.53
2023-11-14T15:52:55.152Z,9.30
2023-11-14T15:58:00.327Z,11.40
2023-11-14T16:03:07.116Z,9.13
2023-11-14T16:08:11.936Z,10.80
2023-11-14T16:13:18.642Z,10.68
2023-11-14T16:18:25.346Z,16.45
2023-11-14T16:23:30.463Z,10.88
2023-11-14T16:28:35.405Z,17.95
2023-11-14T16:33:40.178Z,15.38
2023-11-14T16:38:44.977Z,12.32
2023-11-14T16:43:51.750Z,12.77
2023-11-14T16:48:58.934Z,13.30
2023-11-14T16:54:04.367Z,13.07
2023-11-14T16:59:10.419Z,18.13
2023-11-14T17:04:15.478Z,22.48
2023-11-14T17:09:20.728Z,20.10
2023-11-14T17:14:26.447Z,12.77
2023-11-14T17:19:32.226Z,10.73
2023-11-14T17:24:39.873Z,16.58
2023-11-14T17:29:44.818Z,14.13
2023-11-14T17:34:52.661Z,16.27
2023-11-14T17:39:58.130Z,15.55
2023-11-14T17:45:03.012Z,13.00
2023-11-14T17:50:10.478Z,16.15
2023-11-14T17:55:15.341Z,11.05
2023-11-14T18:00:20.624Z,14.20
2023-11-14T18:05:26.181Z,14.37
2023-11-14T18:10:31.207Z,14.53
2023-11-14T18:15:36.919Z,13.27
2023-11-14T18:20:41.776Z,14.90
2023-11-14T18:25:46.534Z,18.08
2023-11-14T18:30:51.295Z,14.88
2023-11-14T18:35:58.370Z,13.90
2023-11-14T18:41:05.323Z,16.73
2023-11-14T18:46:10.992Z,13.25
2023-11-14T18:51:16.145Z,14.27
2023-11-14T18:56:24.364Z,14.15
2023-11-14T19:01:29.308Z,13.73
2023-11-14T19:06:35.134Z,21.80
2023-11-14T19:11:39.860Z,15.88
2023-11-14T19:16:47.219Z,15.05
2023-11-14T19:21:52.222Z,17.95
2023-11-14T19:26:57.130Z,16.80
2023-11-14T19:32:02.169Z,14.30
2023-11-14T19:37:06.840Z,14.88
2023-11-14T19:42:12.055Z,14.70
2023-11-14T19:47:17.281Z,15.45
2023-11-14T19:52:26.168Z,14.13
2023-11-14T19:57:31.034Z,14.85
2023-11-14T20:02:36.013Z,14.52
2023-11-14T20:07:40.916Z,14.23
2023-11-14T20:12:45.878Z,13.20
2023-11-14T20:17:51.314Z,13.38
2023-11-14T20:22:56.117Z,12.77
2023-11-14T20:28:01.420Z,12.10
2023-11-14T20:33:06.333Z,11.35
2023-11-14T20:38:11.238Z,11.48
2023-11-14T20:43:16.086Z,11.00
2023-11-14T20:48:24.782Z,11.60
2023-11-14T20:53:29.887Z,12.80
2023-11-14T20:58:34.889Z,13.20
2023-11-14T21:03:39.536Z,11.45
2023-11-14T21:08:44.729Z,12.23
2023-11-14T21:13:49.905Z,15.30
2023-11-14T21:18:54.834Z,11.33
2023-11-14T21:24:00.236Z,10.88
2023-11-14T21:29:05.391Z,22.77
2023-11-14T21:34:13.466Z,15.55
2023-11-14T21:39:18.542Z,17.02
2023-11-14T21:44:23.222Z,15.88
2023-11-14T21:49:28.132Z,15.60
2023-11-14T21:54:33.036Z,14.98
2023-11-14T21:59:37.986Z,17.35
2023-11-14T22:04:42.600Z,19.85
2023-11-14T22:09:47.237Z,15.98
2023-11-14T22:14:51.937Z,17.35
2023-11-14T22:19:56.668Z,18.23
2023-11-14T22:25:01.462Z,19.83
2023-11-14T22:30:07.195Z,14.23
2023-11-14T22:35:12.761Z,19.30
2023-11-14T22:40:17.467Z,15.80
2023-11-14T22:45:22.268Z,13.77
2023-11-14T22:50:26.769Z,14.50
2023-11-14T22:55:31.342Z,15.65
2023-11-14T23:00:38.480Z,16.35
2023-11-14T23:05:49.962Z,15.65
2023-11-14T23:10:54.833Z,17.23
2023-11-14T23:15:59.354Z,11.73
2023-11-14T23:21:04.049Z,12.30
2023-11-14T23:26:08.811Z,15.30
2023-11-14T23:31:13.670Z,17.30
2023-11-14T23:36:19.196Z,14.00
2023-11-14T23:41:24.806Z,8.97
2023-11-14T23:46:29.996Z,17.67
2023-11-14T23:51:35.572Z,12.52
2023-11-14T23:56:40.176Z,11.60
